createdAt,value
2022-12-01T00:01:35.541Z,77.66
2022-12-01T00:04:03.826Z,77.49
2022-12-01T00:06:31.882Z,77.50
2022-12-01T00:09:20.209Z,77.54
2022-12-01T00:11:49.138Z,77.45
2022-12-01T00:14:17.871Z,77.46
2022-12-01T00:16:46.013Z,77.54
2022-12-01T00:19:14.109Z,77.66
2022-12-01T00:21:42.179Z,77.66
2022-12-01T00:24:12.013Z,77.62
2022-12-01T00:26:40.185Z,77.77
2022-12-01T00:29:09.669Z,77.70
2022-12-01T00:31:38.220Z,77.59
2022-12-01T00:34:11.022Z,77.45
2022-12-01T00:36:39.788Z,77.69
2022-12-01T00:39:08.629Z,77.88
2022-12-01T00:41:36.668Z,77.73
2022-12-01T00:44:05.097Z,77.86
2022-12-01T00:46:33.541Z,77.73
2022-12-01T00:49:01.785Z,77.77
2022-12-01T00:51:30.345Z,77.73
2022-12-01T00:53:58.492Z,77.55
2022-12-01T00:56:26.563Z,77.67
2022-12-01T00:58:54.637Z,77.76
2022-12-01T01:01:23.143Z,77.92
2022-12-01T01:03:51.235Z,77.97
2022-12-01T01:06:19.273Z,77.92
2022-12-01T01:08:47.327Z,77.97
2022-12-01T01:11:15.424Z,78.03
2022-12-01T01:13:43.511Z,77.83
2022-12-01T01:16:18.480Z,77.94
2022-12-01T01:18:47.004Z,78.05
2022-12-01T01:21:17.716Z,78.03
2022-12-01T01:23:45.816Z,78.04
2022-12-01T01:26:20.974Z,78.10
2022-12-01T01:28:50.464Z,78.14
2022-12-01T01:31:21.812Z,78.02
2022-12-01T01:33:51.323Z,78.02
2022-12-01T01:36:19.808Z,77.88
2022-12-01T01:38:48.378Z,78.09
2022-12-01T01:41:16.440Z,77.94
2022-12-01T01:43:49.038Z,78.10
2022-12-01T01:46:28.911Z,77.98
2022-12-01T01:49:02.414Z,78.16
2022-12-01T01:51:53.766Z,78.09
2022-12-01T01:54:29.548Z,77.97
2022-12-01T01:56:58.808Z,78.01
2022-12-01T01:59:32.539Z,78.04
2022-12-01T02:02:06.768Z,78.11
2022-12-01T02:04:37.073Z,78.18
2022-12-01T02:07:05.845Z,78.22
2022-12-01T02:09:34.235Z,78.15
2022-12-01T02:12:36.492Z,78.25
2022-12-01T02:15:42.861Z,78.00
2022-12-01T02:18:43.826Z,78.13
2022-12-01T02:21:26.917Z,78.29
2022-12-01T02:24:00.658Z,78.34
2022-12-01T02:26:39.882Z,78.34
2022-12-01T02:29:23.314Z,78.18
2022-12-01T02:31:57.178Z,78.21
2022-12-01T02:34:34.839Z,78.01
2022-12-01T02:37:16.296Z,78.10
2022-12-01T02:40:03.686Z,78.19
2022-12-01T02:42:52.467Z,78.32
2022-12-01T02:45:32.022Z,78.14
2022-12-01T02:48:03.359Z,78.22
2022-12-01T02:50:35.339Z,78.19
2022-12-01T02:53:04.629Z,78.29
2022-12-01T02:55:32.993Z,78.05
2022-12-01T02:58:01.016Z,78.15
2022-12-01T03:00:31.099Z,78.15
2022-12-01T03:03:27.132Z,78.19
2022-12-01T03:06:20.669Z,78.33
2022-12-01T03:09:02.715Z,78.13
2022-12-01T03:11:44.375Z,78.12
2022-12-01T03:14:28.322Z,78.19
2022-12-01T03:16:59.680Z,78.01
2022-12-01T03:19:53.043Z,77.99
2022-12-01T03:22:34.192Z,78.12
2022-12-01T03:25:04.442Z,78.24
2022-12-01T03:27:37.882Z,78.07
2022-12-01T03:30:10.911Z,78.02
2022-12-01T03:32:42.567Z,78.12
2022-12-01T03:35:38.193Z,78.01
2022-12-01T03:38:18.128Z,77.94
2022-12-01T03:40:51.156Z,78.06
2022-12-01T03:43:25.380Z,78.20
2022-12-01T03:46:19.967Z,78.33
2022-12-01T03:48:48.071Z,78.16
2022-12-01T03:51:31.856Z,78.29
2022-12-01T03:54:07.907Z,78.32
2022-12-01T03:56:46.840Z,78.13
2022-12-01T03:59:18.585Z,77.98
2022-12-01T04:01:47.296Z,78.08
2022-12-01T04:04:16.763Z,78.12
2022-12-01T04:06:47.949Z,78.28
2022-12-01T04:09:16.268Z,78.25
2022-12-01T04:12:02.915Z,78.16
2022-12-01T04:14:30.947Z,78.14
2022-12-01T04:16:59.029Z,78.02
2022-12-01T04:19:27.111Z,77.94
2022-12-01T04:21:55.146Z,77.85
2022-12-01T04:24:23.243Z,78.07
2022-12-01T04:26:51.265Z,78.14
2022-12-01T04:29:19.256Z,78.10
2022-12-01T04:31:47.307Z,78.08
2022-12-01T04:34:15.361Z,78.02
2022-12-01T04:36:43.381Z,78.13
2022-12-01T04:39:11.423Z,78.20
2022-12-01T04:41:39.468Z,77.83
2022-12-01T04:44:09.473Z,78.00
2022-12-01T04:46:37.951Z,78.20
2022-12-01T04:49:06.648Z,78.21
2022-12-01T04:51:34.716Z,78.16
2022-12-01T04:54:03.391Z,78.14
2022-12-01T04:56:32.460Z,78.10
2022-12-01T04:59:01.182Z,78.07
2022-12-01T05:01:29.612Z,78.00
2022-12-01T05:03:57.631Z,77.68
2022-12-01T05:06:28.352Z,77.96
2022-12-01T05:08:59.517Z,77.92
2022-12-01T05:11:29.523Z,78.11
2022-12-01T05:13:58.107Z,78.10
2022-12-01T05:16:28.775Z,78.16
2022-12-01T05:19:18.831Z,78.12
2022-12-01T05:21:48.823Z,78.17
2022-12-01T05:24:19.045Z,77.96
2022-12-01T05:26:47.556Z,77.97
2022-12-01T05:29:15.597Z,78.11
2022-12-01T05:31:45.823Z,78.23
2022-12-01T05:34:14.105Z,78.33
2022-12-01T05:36:42.145Z,78.24
2022-12-01T05:39:10.179Z,78.36
2022-12-01T05:41:38.213Z,78.18
2022-12-01T05:44:06.278Z,77.96
2022-12-01T05:46:34.278Z,78.04
2022-12-01T05:49:02.277Z,78.14
2022-12-01T05:51:30.332Z,78.19
2022-12-01T05:54:01.613Z,78.34
2022-12-01T05:56:29.677Z,78.39
2022-12-01T05:58:57.863Z,78.34
2022-12-01T06:01:25.941Z,78.39
2022-12-01T06:03:54.563Z,78.14
2022-12-01T06:06:22.640Z,78.11
2022-12-01T06:08:50.671Z,78.11
2022-12-01T06:11:21.216Z,78.30
2022-12-01T06:13:49.203Z,78.33
2022-12-01T06:16:17.268Z,78.35
2022-12-01T06:18:45.280Z,78.25
2022-12-01T06:21:13.351Z,78.35
2022-12-01T06:23:41.377Z,78.22
2022-12-01T06:26:09.436Z,78.09
2022-12-01T06:28:37.424Z,78.26
2022-12-01T06:31:05.728Z,78.32
2022-12-01T06:33:33.851Z,78.40
2022-12-01T06:36:05.414Z,78.41
2022-12-01T06:38:35.842Z,78.48
2022-12-01T06:41:05.490Z,78.41
2022-12-01T06:43:37.178Z,78.50
2022-12-01T06:46:06.097Z,78.18
2022-12-01T06:48:34.711Z,78.19
2022-12-01T06:51:03.157Z,78.33
2022-12-01T06:53:31.335Z,78.38
2022-12-01T06:56:04.901Z,78.43
2022-12-01T06:58:34.735Z,78.35
2022-12-01T07:01:11.249Z,78.46
2022-12-01T07:03:39.825Z,78.27
2022-12-01T07:06:07.887Z,78.24
2022-12-01T07:08:35.965Z,78.05
2022-12-01T07:11:09.753Z,78.27
2022-12-01T07:13:37.802Z,78.45
2022-12-01T07:16:07.722Z,78.49
2022-12-01T07:18:37.411Z,78.36
2022-12-01T07:21:08.992Z,78.45
2022-12-01T07:23:37.029Z,78.56
2022-12-01T07:26:08.333Z,78.48
2022-12-01T07:28:36.501Z,78.28
2022-12-01T07:31:09.660Z,78.33
2022-12-01T07:33:38.652Z,78.56
2022-12-01T07:36:08.064Z,78.53
2022-12-01T07:38:37.656Z,78.59
2022-12-01T07:41:08.110Z,78.57
2022-12-01T07:43:36.987Z,78.56
2022-12-01T07:46:18.758Z,78.45
2022-12-01T07:48:49.061Z,78.46
2022-12-01T07:51:17.865Z,78.54
2022-12-01T07:53:47.841Z,78.71
2022-12-01T07:56:17.129Z,78.47
2022-12-01T07:58:45.595Z,78.51
2022-12-01T08:01:16.533Z,78.52
2022-12-01T08:03:45.106Z,78.47
2022-12-01T08:06:13.288Z,78.61
2022-12-01T08:08:42.070Z,78.23
2022-12-01T08:11:18.939Z,78.21
2022-12-01T08:13:47.007Z,78.50
2022-12-01T08:16:17.260Z,78.54
2022-12-01T08:18:46.072Z,78.32
2022-12-01T08:21:16.650Z,78.34
2022-12-01T08:23:45.036Z,78.34
2022-12-01T08:26:16.156Z,78.42
2022-12-01T08:28:45.226Z,78.30
2022-12-01T08:31:18.012Z,78.06
2022-12-01T08:33:47.876Z,78.21
2022-12-01T08:36:16.005Z,78.40
2022-12-01T08:38:45.883Z,78.49
2022-12-01T08:41:14.703Z,78.58
2022-12-01T08:44:00.937Z,78.57
2022-12-01T08:46:33.164Z,78.48
2022-12-01T08:49:02.837Z,78.49
2022-12-01T08:51:31.304Z,78.09
2022-12-01T08:54:00.707Z,78.27
2022-12-01T08:56:32.669Z,78.49
2022-12-01T08:59:00.841Z,78.31
2022-12-01T09:01:29.515Z,78.46
2022-12-01T09:04:10.766Z,78.46
2022-12-01T09:06:42.624Z,78.50
2022-12-01T09:09:12.204Z,78.43
2022-12-01T09:11:41.429Z,78.06
2022-12-01T09:14:10.477Z,78.13
2022-12-01T09:16:38.602Z,78.15
2022-12-01T09:19:07.205Z,78.27
2022-12-01T09:21:39.459Z,78.13
2022-12-01T09:24:08.520Z,78.12
2022-12-01T09:26:36.616Z,78.22
2022-12-01T09:29:08.175Z,78.23
2022-12-01T09:31:37.504Z,77.97
2022-12-01T09:34:08.760Z,77.63
2022-12-01T09:36:37.736Z,77.77
2022-12-01T09:39:08.192Z,77.82
2022-12-01T09:42:09.126Z,77.87
2022-12-01T09:44:43.481Z,77.97
2022-12-01T09:47:14.274Z,77.95
2022-12-01T09:49:46.522Z,77.90
2022-12-01T09:52:19.901Z,77.89
2022-12-01T09:54:48.929Z,77.82
2022-12-01T09:57:38.681Z,77.65
2022-12-01T10:00:16.878Z,77.51
2022-12-01T10:03:13.032Z,77.87
2022-12-01T10:06:25.880Z,77.37
2022-12-01T10:08:57.781Z,77.53
2022-12-01T10:11:34.662Z,77.49
2022-12-01T10:14:03.663Z,77.48
2022-12-01T10:16:40.317Z,77.58
2022-12-01T10:19:15.466Z,77.33
2022-12-01T10:22:23.892Z,76.96
2022-12-01T10:24:59.459Z,77.08
2022-12-01T10:27:52.807Z,77.30
2022-12-01T10:30:23.850Z,77.25
2022-12-01T10:32:53.556Z,77.33
2022-12-01T10:35:29.326Z,77.30
2022-12-01T10:38:01.961Z,77.15
2022-12-01T10:40:34.778Z,77.19
2022-12-01T10:43:03.699Z,77.17
2022-12-01T10:45:40.816Z,76.96
2022-12-01T10:48:11.572Z,76.94
2022-12-01T10:50:39.743Z,76.93
2022-12-01T10:53:23.022Z,77.14
2022-12-01T10:56:05.630Z,77.08
2022-12-01T10:58:42.575Z,76.99
2022-12-01T11:01:27.086Z,76.97
2022-12-01T11:04:04.100Z,76.76
2022-12-01T11:06:33.046Z,76.76
2022-12-01T11:09:26.017Z,76.69
2022-12-01T11:12:04.986Z,76.61
2022-12-01T11:14:51.086Z,76.27
2022-12-01T11:17:43.377Z,76.27
2022-12-01T11:20:29.388Z,76.46
2022-12-01T11:23:09.694Z,76.30
2022-12-01T11:25:38.349Z,76.28
2022-12-01T11:28:06.666Z,76.24
2022-12-01T11:30:34.864Z,76.22
2022-12-01T11:33:04.844Z,76.20
2022-12-01T11:35:38.131Z,76.11
2022-12-01T11:40:57.862Z,75.86
2022-12-01T11:43:37.386Z,75.68
2022-12-01T11:46:09.303Z,75.35
2022-12-01T11:48:37.475Z,75.19
2022-12-01T11:51:05.696Z,75.30
2022-12-01T11:53:39.114Z,75.31
2022-12-01T11:56:25.352Z,75.26
2022-12-01T11:59:02.562Z,75.09
2022-12-01T12:01:49.065Z,75.30
2022-12-01T12:04:49.681Z,75.29
2022-12-01T12:07:55.436Z,75.41
2022-12-01T12:10:27.218Z,75.24
2022-12-01T12:13:07.187Z,75.23
2022-12-01T12:15:55.405Z,75.25
2022-12-01T12:18:42.179Z,75.17
2022-12-01T12:21:10.624Z,75.30
2022-12-01T12:24:07.029Z,74.90
2022-12-01T12:26:50.868Z,74.96
2022-12-01T12:29:51.060Z,75.13
2022-12-01T12:32:27.456Z,75.17
2022-12-01T12:35:23.373Z,75.11
2022-12-01T12:38:08.901Z,75.04
2022-12-01T12:40:49.633Z,74.87
2022-12-01T12:43:30.581Z,74.74
2022-12-01T12:46:12.506Z,74.80
2022-12-01T12:49:19.880Z,74.72
2022-12-01T12:52:08.091Z,74.68
2022-12-01T12:54:57.398Z,74.71
2022-12-01T12:57:31.460Z,74.71
2022-12-01T13:00:08.346Z,74.73
2022-12-01T13:02:44.384Z,74.68
2022-12-01T13:05:18.950Z,74.80
2022-12-01T13:08:03.388Z,74.85
2022-12-01T13:10:44.917Z,74.83
2022-12-01T13:13:27.937Z,74.70
2022-12-01T13:15:58.906Z,74.62
2022-12-01T13:18:47.091Z,74.60
2022-12-01T13:21:22.008Z,74.82
2022-12-01T13:23:51.858Z,74.56
2022-12-01T13:26:22.338Z,74.46
2022-12-01T13:28:56.719Z,74.58
2022-12-01T13:31:25.220Z,74.45
2022-12-01T13:34:00.939Z,74.63
2022-12-01T13:36:46.259Z,74.48
2022-12-01T13:39:27.890Z,74.35
2022-12-01T13:42:06.368Z,74.18
2022-12-01T13:44:51.512Z,74.11
2022-12-01T13:47:19.928Z,74.33
2022-12-01T13:49:52.776Z,74.25
2022-12-01T13:52:30.426Z,74.38
2022-12-01T13:55:07.561Z,74.28
2022-12-01T13:57:39.099Z,74.22
2022-12-01T14:00:22.162Z,74.01
2022-12-01T14:03:15.110Z,73.91
2022-12-01T14:06:27.075Z,73.83
2022-12-01T14:09:00.284Z,73.99
2022-12-01T14:11:34.252Z,74.16
2022-12-01T14:14:39.421Z,74.20
2022-12-01T14:17:24.474Z,74.19
2022-12-01T14:19:54.300Z,74.08
2022-12-01T14:22:35.605Z,74.19
2022-12-01T14:25:30.635Z,74.22
2022-12-01T14:28:03.689Z,74.14
2022-12-01T14:30:46.929Z,74.09
2022-12-01T14:33:40.081Z,74.06
2022-12-01T14:36:17.189Z,74.16
2022-12-01T14:38:47.551Z,74.27
2022-12-01T14:41:29.550Z,74.17
2022-12-01T14:44:08.052Z,74.14
2022-12-01T14:46:45.196Z,74.15
2022-12-01T14:49:21.743Z,74.18
2022-12-01T14:51:56.549Z,74.28
2022-12-01T14:54:35.160Z,74.25
2022-12-01T14:57:09.962Z,74.00
2022-12-01T14:59:41.121Z,74.19
2022-12-01T15:02:12.374Z,74.36
2022-12-01T15:05:16.593Z,74.33
2022-12-01T15:07:49.016Z,74.29
2022-12-01T15:10:24.114Z,74.41
2022-12-01T15:12:53.705Z,74.19
2022-12-01T15:15:27.019Z,74.21
2022-12-01T15:17:56.003Z,74.13
2022-12-01T15:20:41.283Z,74.22
2022-12-01T15:23:16.307Z,74.19
2022-12-01T15:25:46.438Z,74.16
2022-12-01T15:28:18.074Z,74.27
2022-12-01T15:30:50.255Z,74.02
2022-12-01T15:33:27.305Z,73.95
2022-12-01T15:35:58.946Z,73.83
2022-12-01T15:38:33.318Z,73.96
2022-12-01T15:44:00.659Z,73.95
2022-12-01T15:46:31.642Z,73.84
2022-12-01T15:49:08.687Z,73.82
2022-12-01T15:51:36.947Z,73.83
2022-12-01T15:54:05.198Z,73.76
2022-12-01T15:56:41.521Z,73.77
2022-12-01T15:59:13.935Z,73.77
2022-12-01T16:01:44.079Z,73.87
2022-12-01T16:04:28.184Z,73.67
2022-12-01T16:07:07.088Z,73.77
2022-12-01T16:09:56.924Z,73.75
2022-12-01T16:12:27.578Z,73.79
2022-12-01T16:14:57.110Z,73.58
2022-12-01T16:17:26.556Z,73.49
2022-12-01T16:20:33.069Z,73.62
2022-12-01T16:23:05.629Z,73.68
2022-12-01T16:25:37.269Z,73.72
2022-12-01T16:28:07.554Z,73.76
2022-12-01T16:30:39.066Z,73.57
2022-12-01T16:33:17.170Z,73.51
2022-12-01T16:35:46.196Z,73.64
2022-12-01T16:38:22.982Z,73.65
2022-12-01T16:40:56.565Z,73.63
2022-12-01T16:43:26.964Z,73.66
2022-12-01T16:46:00.630Z,73.64
2022-12-01T16:48:30.184Z,73.58
2022-12-01T16:51:03.219Z,73.54
2022-12-01T16:53:32.197Z,73.44
2022-12-01T16:56:02.092Z,73.41
2022-12-01T16:58:31.180Z,73.53
2022-12-01T17:01:00.004Z,73.53
2022-12-01T17:03:28.572Z,73.58
2022-12-01T17:06:00.443Z,73.49
2022-12-01T17:08:28.699Z,73.44
2022-12-01T17:10:57.140Z,73.43
2022-12-01T17:13:25.221Z,73.49
2022-12-01T17:15:55.058Z,73.54
2022-12-01T17:18:24.416Z,73.38
2022-12-01T17:21:01.509Z,73.25
2022-12-01T17:23:29.879Z,73.34
2022-12-01T17:25:57.894Z,73.42
2022-12-01T17:28:26.253Z,73.32
2022-12-01T17:30:54.391Z,73.39
2022-12-01T17:33:22.479Z,73.44
2022-12-01T17:35:50.579Z,73.27
2022-12-01T17:38:18.658Z,73.37
2022-12-01T17:41:01.948Z,73.42
2022-12-01T17:43:30.198Z,73.50
2022-12-01T17:45:59.143Z,73.32
2022-12-01T17:48:28.227Z,73.24
2022-12-01T17:50:56.420Z,73.47
2022-12-01T17:53:24.481Z,73.31
2022-12-01T17:55:52.516Z,73.30
2022-12-01T17:58:21.798Z,73.43
2022-12-01T18:00:52.106Z,73.29
2022-12-01T18:03:21.286Z,73.16
2022-12-01T18:06:00.793Z,73.36
2022-12-01T18:08:31.010Z,73.35
2022-12-01T18:11:07.829Z,73.21
2022-12-01T18:13:41.858Z,73.40
2022-12-01T18:16:13.081Z,73.26
2022-12-01T18:18:41.848Z,73.22
2022-12-01T18:21:12.905Z,73.35
2022-12-01T18:23:41.013Z,73.48
2022-12-01T18:26:15.671Z,73.40
2022-12-01T18:28:44.697Z,73.37
2022-12-01T18:31:15.320Z,73.55
2022-12-01T18:33:45.418Z,73.51
2022-12-01T18:36:16.897Z,73.37
2022-12-01T18:38:47.396Z,73.56
2022-12-01T18:41:16.477Z,73.35
2022-12-01T18:43:45.453Z,73.55
2022-12-01T18:46:16.399Z,73.57
2022-12-01T18:48:49.552Z,73.57
2022-12-01T18:51:18.220Z,73.53
2022-12-01T18:53:46.336Z,73.45
2022-12-01T18:56:15.333Z,73.55
2022-12-01T18:58:43.667Z,73.74
2022-12-01T19:01:39.940Z,73.80
2022-12-01T19:04:09.656Z,73.78
2022-12-01T19:06:40.461Z,73.76
2022-12-01T19:09:10.713Z,73.74
2022-12-01T19:11:41.281Z,73.63
2022-12-01T19:14:14.875Z,73.77
2022-12-01T19:16:43.908Z,73.91
2022-12-01T19:19:12.160Z,73.87
2022-12-01T19:21:40.857Z,73.66
2022-12-01T19:24:08.959Z,73.44
2022-12-01T19:26:37.032Z,73.68
2022-12-01T19:29:05.280Z,73.74
2022-12-01T19:31:33.500Z,73.72
2022-12-01T19:34:04.626Z,73.53
2022-12-01T19:36:33.013Z,73.58
2022-12-01T19:39:04.379Z,73.76
2022-12-01T19:41:38.646Z,73.70
2022-12-01T19:44:07.293Z,73.52
2022-12-01T19:46:35.463Z,73.59
2022-12-01T19:49:05.061Z,73.59
2022-12-01T19:51:36.107Z,73.77
2022-12-01T19:54:06.286Z,73.41
2022-12-01T19:56:34.676Z,73.41
2022-12-01T19:59:02.866Z,73.71
2022-12-01T20:01:31.042Z,73.66
2022-12-01T20:03:59.172Z,73.62
2022-12-01T20:06:30.043Z,73.80
2022-12-01T20:09:00.551Z,73.83
2022-12-01T20:11:29.964Z,73.63
2022-12-01T20:13:58.401Z,73.58
2022-12-01T20:16:28.492Z,73.71
2022-12-01T20:19:00.787Z,73.73
2022-12-01T20:21:31.841Z,73.66
2022-12-01T20:24:06.328Z,73.83
2022-12-01T20:26:37.655Z,73.52
2022-12-01T20:29:09.564Z,73.53
2022-12-01T20:31:38.146Z,73.72
2022-12-01T20:34:10.748Z,73.65
2022-12-01T20:36:40.620Z,73.61
2022-12-01T20:39:10.920Z,73.74
2022-12-01T20:41:40.577Z,73.73
2022-12-01T20:44:09.754Z,73.81
2022-12-01T20:46:38.533Z,73.59
2022-12-01T20:49:07.352Z,73.65
2022-12-01T20:51:35.624Z,73.60
2022-12-01T20:54:27.216Z,73.74
2022-12-01T20:56:54.495Z,73.73
2022-12-01T20:59:22.586Z,73.82
2022-12-01T21:01:50.913Z,73.67
2022-12-01T21:04:18.983Z,73.66
2022-12-01T21:06:47.352Z,73.67
2022-12-01T21:09:15.481Z,73.75
2022-12-01T21:12:08.222Z,73.78
2022-12-01T21:14:42.464Z,73.90
2022-12-01T21:17:31.682Z,74.02
2022-12-01T21:20:04.982Z,74.04
2022-12-01T21:22:34.081Z,73.85
2022-12-01T21:25:10.678Z,73.99
2022-12-01T21:27:38.745Z,74.18
2022-12-01T21:30:26.528Z,73.97
2022-12-01T21:33:01.078Z,74.04
2022-12-01T21:35:29.113Z,74.08
2022-12-01T21:38:11.307Z,74.12
2022-12-01T21:40:44.024Z,74.24
2022-12-01T21:43:24.210Z,74.32
2022-12-01T21:45:56.236Z,74.44
2022-12-01T21:48:25.092Z,74.29
2022-12-01T21:51:11.932Z,74.34
2022-12-01T21:53:40.158Z,74.66
2022-12-01T21:56:22.307Z,74.61
2022-12-01T21:58:50.729Z,74.23
2022-12-01T22:01:32.977Z,74.37
2022-12-01T22:04:06.350Z,74.45
2022-12-01T22:06:40.225Z,74.57
2022-12-01T22:09:35.210Z,74.45
2022-12-01T22:12:27.755Z,74.56
2022-12-01T22:15:01.046Z,74.58
2022-12-01T22:17:30.198Z,74.78
2022-12-01T22:20:01.653Z,74.62
2022-12-01T22:22:32.709Z,74.64
2022-12-01T22:25:22.523Z,74.49
2022-12-01T22:27:51.195Z,74.48
2022-12-01T22:30:24.034Z,74.68
2022-12-01T22:33:05.706Z,74.63
2022-12-01T22:35:42.426Z,74.78
2022-12-01T22:38:21.687Z,74.91
2022-12-01T22:40:51.586Z,74.86
2022-12-01T22:43:24.937Z,75.09
2022-12-01T22:46:07.398Z,75.05
2022-12-01T22:48:41.565Z,74.81
2022-12-01T22:51:35.272Z,74.78
2022-12-01T22:54:12.147Z,75.01
2022-12-01T22:56:43.140Z,74.99
2022-12-01T22:59:35.263Z,75.14
2022-12-01T23:02:35.829Z,75.06
2022-12-01T23:05:27.167Z,75.14
2022-12-01T23:07:56.325Z,75.22
2022-12-01T23:10:35.322Z,75.53
2022-12-01T23:13:15.468Z,75.25
2022-12-01T23:15:49.009Z,75.14
2022-12-01T23:18:22.776Z,75.10
2022-12-01T23:20:53.085Z,75.42
2022-12-01T23:23:29.975Z,75.42
2022-12-01T23:25:59.242Z,75.16
2022-12-01T23:28:29.385Z,75.54
2022-12-01T23:30:59.816Z,75.62
2022-12-01T23:33:35.388Z,75.67
2022-12-01T23:36:11.927Z,75.47
2022-12-01T23:38:45.542Z,75.53
2022-12-01T23:41:34.692Z,75.39
2022-12-01T23:44:39.014Z,75.49
2022-12-01T23:47:17.412Z,75.79
2022-12-01T23:49:47.010Z,75.67
2022-12-01T23:52:20.153Z,75.97
2022-12-01T23:54:48.733Z,75.95
2022-12-01T23:57:23.669Z,75.85
2022-12-01T23:59:55.309Z,75.95
